メインページ
METAR-TAF:

METAR-TAF

空港 :

アルマトイ, カザフスタン

アルマトイ国際空港

緯度: 43-14N, 経度: 076-56E, 海抜: 847m

現時点の気象観測

当レポートは18分前の01:00(UTC)に作成
南/南東の風 4kt、からの間で変化する
気温 17°C
湿度 72%
気圧 1011 hPa
視程10km以上

METAR: UAAA 230100Z 16002MPS 090V180 9999 NSC 17/12 Q1011 R23R/CLRD65 NOSIG

時間: 07:18 (01:18 UTC)

予報

当レポートは2時間18分前の23:00(UTC)に作成
予報は23日の 00時(UTC)から 23日の 24時(UTC)まで有効
南/南西の風 10kt
視程10km以上
23日の 03時(UTC)から 23日の 04時(UTC)まで徐々に
北東の風 12kt
23日の 07時(UTC)から 23日の 08時(UTC)まで徐々に
高度5000ftの千切れ雲あり, 積乱雲.
高度10000ftの千切れ雲あり
23日の 10時(UTC)から 23日の 24時(UTC)まで一時的に
変向風 29kt
激しい雷雨, 雨, スコール

TAF: UAAA 222300Z 2300/2324 20005MPS 9999 NSC TX29/2309Z TN11/2301Z BECMG 2303/2304 04006MPS BECMG 2307/2308 BKN050CB BKN100 TEMPO 2310/2324 VRB15MPS TSRA SQ

4,000以上の空港の気象観測と天気予報(METAR報とTAF報)

利用可能な観測所は地図上に黄色い丸と赤い丸で示す。

丸の上にカーソルを重ねると観測所名を参照できる。

次にクリックすると気象観測と天気予報を参照できる。

マップの切り替え:黒色「×」印の緑ボタンをクリックして拡大、「-」印の緑ボタンをクリックして縮小、緑色の三角印をクリックして隣りの地図に切り替え


METAR-TAF: